PWSweather.com
Personal Weather Stations
Station Observations
ANTHEMNP
Anthem North Parkside, Anthem, AZ 85086

Anthem North ParksideAnthem, AZ 85086

Lat: 33.876464, Lon: -112.13861199999997

Elevation: 1930

Station Type: Davis Vantage Vue with Pro 2 console

http://www.azjerry.com/ANPW/wxindex.php

High Low Average
Temperature 80.6°F27.0°C 57.3°F14.1°C 67.9°F19.9°C
Dew Point 47.2°F8.4°C 40.4°F4.7°C 43.9°F6.6°C
Winds 4.6 mph 7.4 kmh Calm Calm 1.0 mph E1.6 kmh E
Wind Gusts 9.2 mph14.8 kmh -- 2.0 mph3.2 kmh
Humidity 63% 25% 44%
Pressure 29.96 in1014.6 mb 29.85 in1010.8 mb -
Precipitation 0.00 in0.0 mm - -
Hour Temp Dew Point Humidity Winds Wind Gusts Pressure Precip Precip Rate Daily Precip Total
12:00 AM 59.8°F15.4°C 43.1°F6.2°C 54% Calm Calm -- 29.87 in1011.5 mb - 0.00 in0.0 mm 0.00 in0.0 mm
12:10 AM 59.6°F15.3°C 43.4°F6.3°C 55% Calm Calm -- 29.88 in1011.9 mb - 0.00 in0.0 mm 0.00 in0.0 mm
12:15 AM 59.3°F15.2°C 44.1°F6.7°C 57% Calm Calm -- 29.88 in1011.9 mb - 0.00 in0.0 mm 0.00 in0.0 mm
12:20 AM 58.9°F14.9°C 43.7°F6.5°C 57% Calm Calm -- 29.88 in1011.9 mb - 0.00 in0.0 mm 0.00 in0.0 mm
12:25 AM 58.7°F14.8°C 42.6°F5.9°C 55% Calm Calm -- 29.88 in1011.9 mb - 0.00 in0.0 mm 0.00 in0.0 mm
12:30 AM 59.0°F15.0°C 43.3°F6.3°C 56% Calm Calm -- 29.88 in1011.9 mb - 0.00 in0.0 mm 0.00 in0.0 mm
12:35 AM 58.9°F14.9°C 42.8°F6.0°C 55% Calm Calm -- 29.88 in1011.9 mb - 0.00 in0.0 mm 0.00 in0.0 mm
12:40 AM 58.7°F14.8°C 42.6°F5.9°C 55% Calm Calm -- 29.88 in1011.9 mb - 0.00 in0.0 mm 0.00 in0.0 mm
12:45 AM 58.5°F14.7°C 43.7°F6.5°C 58% Calm Calm -- 29.88 in1011.9 mb - 0.00 in0.0 mm 0.00 in0.0 mm
12:50 AM 58.6°F14.8°C 43.4°F6.3°C 57% Calm Calm -- 29.88 in1011.9 mb - 0.00 in0.0 mm 0.00 in0.0 mm
12:55 AM 58.9°F14.9°C 44.1°F6.7°C 58% Calm Calm -- 29.88 in1011.9 mb - 0.00 in0.0 mm 0.00 in0.0 mm
01:00 AM 58.8°F14.9°C 43.6°F6.4°C 57% Calm Calm -- 29.88 in1011.9 mb - 0.00 in0.0 mm 0.00 in0.0 mm
01:10 AM 58.3°F14.6°C 43.1°F6.2°C 57% Calm Calm -- 29.88 in1011.9 mb - 0.00 in0.0 mm 0.00 in0.0 mm
01:15 AM 58.1°F14.5°C 43.4°F6.3°C 58% Calm Calm -- 29.89 in1012.2 mb - 0.00 in0.0 mm 0.00 in0.0 mm
01:20 AM 58.0°F14.4°C 45.1°F7.3°C 62% Calm Calm -- 29.89 in1012.2 mb - 0.00 in0.0 mm 0.00 in0.0 mm
01:25 AM 57.8°F14.3°C 44.8°F7.1°C 62% Calm Calm -- 29.89 in1012.2 mb - 0.00 in0.0 mm 0.00 in0.0 mm
01:30 AM 57.5°F14.2°C 45.0°F7.2°C 63% Calm Calm -- 29.89 in1012.2 mb - 0.00 in0.0 mm 0.00 in0.0 mm
01:35 AM 57.5°F14.2°C 43.7°F6.5°C 60% Calm Calm 1.2 mph1.9 kmh 29.90 in1012.5 mb - 0.00 in0.0 mm 0.00 in0.0 mm
01:45 AM 57.4°F14.1°C 43.6°F6.4°C 60% Calm Calm 1.2 mph1.9 kmh 29.90 in1012.5 mb - 0.00 in0.0 mm 0.00 in0.0 mm
01:50 AM 58.7°F14.8°C 43.1°F6.2°C 56% Calm Calm 1.2 mph1.9 kmh 29.89 in1012.2 mb - 0.00 in0.0 mm 0.00 in0.0 mm
01:55 AM 58.9°F14.9°C 42.8°F6.0°C 55% Calm Calm 1.2 mph1.9 kmh 29.89 in1012.2 mb - 0.00 in0.0 mm 0.00 in0.0 mm
02:00 AM 59.2°F15.1°C 43.0°F6.1°C 55% Calm Calm -- 29.89 in1012.2 mb - 0.00 in0.0 mm 0.00 in0.0 mm
02:10 AM 59.1°F15.1°C 43.4°F6.3°C 56% 1.2 mph NNE1.9 kmh NNE 1.2 mph1.9 kmh 29.89 in1012.2 mb - 0.00 in0.0 mm 0.00 in0.0 mm
02:15 AM 59.2°F15.1°C 42.5°F5.8°C 54% Calm Calm -- 29.89 in1012.2 mb - 0.00 in0.0 mm 0.00 in0.0 mm
02:20 AM 59.0°F15.0°C 42.4°F5.8°C 54% Calm Calm -- 29.89 in1012.2 mb - 0.00 in0.0 mm 0.00 in0.0 mm
02:25 AM 58.9°F14.9°C 42.8°F6.0°C 55% Calm Calm -- 29.89 in1012.2 mb - 0.00 in0.0 mm 0.00 in0.0 mm
02:30 AM 59.0°F15.0°C 43.3°F6.3°C 56% Calm Calm -- 29.89 in1012.2 mb - 0.00 in0.0 mm 0.00 in0.0 mm
02:35 AM 58.7°F14.8°C 43.5°F6.4°C 57% Calm Calm -- 29.89 in1012.2 mb - 0.00 in0.0 mm 0.00 in0.0 mm
02:40 AM 58.6°F14.8°C 42.0°F5.6°C 54% Calm Calm 1.2 mph1.9 kmh 29.89 in1012.2 mb - 0.00 in0.0 mm 0.00 in0.0 mm
02:45 AM 59.2°F15.1°C 41.6°F5.3°C 52% Calm Calm -- 29.89 in1012.2 mb - 0.00 in0.0 mm 0.00 in0.0 mm
02:50 AM 59.5°F15.3°C 40.8°F4.9°C 50% Calm Calm -- 29.89 in1012.2 mb - 0.00 in0.0 mm 0.00 in0.0 mm
02:55 AM 59.3°F15.2°C 42.2°F5.7°C 53% Calm Calm -- 29.89 in1012.2 mb - 0.00 in0.0 mm 0.00 in0.0 mm
03:00 AM 58.7°F14.8°C 43.1°F6.2°C 56% Calm Calm -- 29.89 in1012.2 mb - 0.00 in0.0 mm 0.00 in0.0 mm
03:10 AM 57.6°F14.2°C 44.6°F7.0°C 62% Calm Calm 1.2 mph1.9 kmh 29.89 in1012.2 mb - 0.00 in0.0 mm 0.00 in0.0 mm
03:15 AM 57.7°F14.3°C 43.9°F6.6°C 60% 1.2 mph NNE1.9 kmh NNE 1.2 mph1.9 kmh 29.89 in1012.2 mb - 0.00 in0.0 mm 0.00 in0.0 mm
03:20 AM 58.2°F14.6°C 43.5°F6.4°C 58% Calm Calm -- 29.89 in1012.2 mb - 0.00 in0.0 mm 0.00 in0.0 mm
03:25 AM 58.4°F14.7°C 43.2°F6.2°C 57% Calm Calm -- 29.89 in1012.2 mb - 0.00 in0.0 mm 0.00 in0.0 mm
03:30 AM 58.6°F14.8°C 42.5°F5.8°C 55% Calm Calm -- 29.89 in1012.2 mb - 0.00 in0.0 mm 0.00 in0.0 mm
03:35 AM 59.0°F15.0°C 43.3°F6.3°C 56% Calm Calm -- 29.89 in1012.2 mb - 0.00 in0.0 mm 0.00 in0.0 mm
03:40 AM 58.6°F14.8°C 42.9°F6.1°C 56% Calm Calm -- 29.89 in1012.2 mb - 0.00 in0.0 mm 0.00 in0.0 mm
03:45 AM 58.5°F14.7°C 42.4°F5.8°C 55% Calm Calm -- 29.89 in1012.2 mb - 0.00 in0.0 mm 0.00 in0.0 mm
03:50 AM 58.3°F14.6°C 44.4°F6.9°C 60% Calm Calm -- 29.89 in1012.2 mb - 0.00 in0.0 mm 0.00 in0.0 mm
03:55 AM 57.6°F14.2°C 44.7°F7.1°C 62% Calm Calm -- 29.89 in1012.2 mb - 0.00 in0.0 mm 0.00 in0.0 mm
04:00 AM 57.3°F14.1°C 44.4°F6.9°C 62% 1.2 mph NNE1.9 kmh NNE 1.2 mph1.9 kmh 29.89 in1012.2 mb - 0.00 in0.0 mm 0.00 in0.0 mm
04:10 AM 57.6°F14.2°C 44.3°F6.8°C 61% 1.2 mph NNE1.9 kmh NNE 2.3 mph3.7 kmh 29.89 in1012.2 mb - 0.00 in0.0 mm 0.00 in0.0 mm
04:15 AM 57.7°F14.3°C 43.9°F6.6°C 60% 1.2 mph NE1.9 kmh NE 2.3 mph3.7 kmh 29.90 in1012.5 mb - 0.00 in0.0 mm 0.00 in0.0 mm
04:20 AM 58.1°F14.5°C 43.9°F6.6°C 59% 1.2 mph N1.9 kmh N 1.2 mph1.9 kmh 29.90 in1012.5 mb - 0.00 in0.0 mm 0.00 in0.0 mm
04:25 AM 58.3°F14.6°C 44.0°F6.7°C 59% Calm Calm -- 29.90 in1012.5 mb - 0.00 in0.0 mm 0.00 in0.0 mm
04:30 AM 58.3°F14.6°C 44.0°F6.7°C 59% 1.2 mph NNE1.9 kmh NNE 1.2 mph1.9 kmh 29.90 in1012.5 mb - 0.00 in0.0 mm 0.00 in0.0 mm
04:35 AM 58.1°F14.5°C 44.3°F6.8°C 60% Calm Calm 1.2 mph1.9 kmh 29.90 in1012.5 mb - 0.00 in0.0 mm 0.00 in0.0 mm
04:40 AM 57.9°F14.4°C 44.1°F6.7°C 60% 1.2 mph NNE1.9 kmh NNE 2.3 mph3.7 kmh 29.90 in1012.5 mb - 0.00 in0.0 mm 0.00 in0.0 mm
04:45 AM 57.9°F14.4°C 44.1°F6.7°C 60% Calm Calm 1.2 mph1.9 kmh 29.90 in1012.5 mb - 0.00 in0.0 mm 0.00 in0.0 mm
04:50 AM 57.8°F14.3°C 44.4°F6.9°C 61% Calm Calm -- 29.90 in1012.5 mb - 0.00 in0.0 mm 0.00 in0.0 mm
04:55 AM 57.6°F14.2°C 44.2°F6.8°C 61% Calm Calm 1.2 mph1.9 kmh 29.90 in1012.5 mb - 0.00 in0.0 mm 0.00 in0.0 mm
05:00 AM 57.6°F14.2°C 44.3°F6.8°C 61% Calm Calm 1.2 mph1.9 kmh 29.90 in1012.5 mb - 0.00 in0.0 mm 0.00 in0.0 mm
05:10 AM 58.0°F14.4°C 43.7°F6.5°C 59% 1.2 mph NNE1.9 kmh NNE 2.3 mph3.7 kmh 29.90 in1012.5 mb - 0.00 in0.0 mm 0.00 in0.0 mm
05:15 AM 58.0°F14.4°C 43.8°F6.6°C 59% 1.2 mph NNE1.9 kmh NNE 2.3 mph3.7 kmh 29.90 in1012.5 mb - 0.00 in0.0 mm 0.00 in0.0 mm
05:20 AM 58.2°F14.6°C 43.9°F6.6°C 59% Calm Calm -- 29.90 in1012.5 mb - 0.00 in0.0 mm 0.00 in0.0 mm
05:25 AM 58.1°F14.5°C 43.8°F6.6°C 59% Calm Calm 1.2 mph1.9 kmh 29.90 in1012.5 mb - 0.00 in0.0 mm 0.00 in0.0 mm
05:30 AM 58.0°F14.4°C 43.8°F6.6°C 59% Calm Calm -- 29.90 in1012.5 mb - 0.00 in0.0 mm 0.00 in0.0 mm
05:35 AM 57.9°F14.4°C 44.1°F6.7°C 60% Calm Calm -- 29.90 in1012.5 mb - 0.00 in0.0 mm 0.00 in0.0 mm
05:40 AM 57.8°F14.3°C 43.1°F6.2°C 58% Calm Calm -- 29.90 in1012.5 mb - 0.00 in0.0 mm 0.00 in0.0 mm
05:45 AM 57.9°F14.4°C 43.2°F6.2°C 58% Calm Calm -- 29.91 in1012.9 mb - 0.00 in0.0 mm 0.00 in0.0 mm
05:50 AM 57.9°F14.4°C 42.8°F6.0°C 57% Calm Calm -- 29.91 in1012.9 mb - 0.00 in0.0 mm 0.00 in0.0 mm
05:55 AM 57.7°F14.3°C 42.6°F5.9°C 57% Calm Calm 1.2 mph1.9 kmh 29.91 in1012.9 mb - 0.00 in0.0 mm 0.00 in0.0 mm
06:00 AM 57.9°F14.4°C 42.7°F5.9°C 57% Calm Calm 1.2 mph1.9 kmh 29.91 in1012.9 mb - 0.00 in0.0 mm 0.00 in0.0 mm
06:10 AM 58.7°F14.8°C 43.0°F6.1°C 56% 1.2 mph N1.9 kmh N 2.3 mph3.7 kmh 29.91 in1012.9 mb - 0.00 in0.0 mm 0.00 in0.0 mm
06:15 AM 58.6°F14.8°C 43.4°F6.3°C 57% Calm Calm 1.2 mph1.9 kmh 29.91 in1012.9 mb - 0.00 in0.0 mm 0.00 in0.0 mm
06:20 AM 58.3°F14.6°C 43.6°F6.4°C 58% Calm Calm 1.2 mph1.9 kmh 29.91 in1012.9 mb - 0.00 in0.0 mm 0.00 in0.0 mm
06:25 AM 58.1°F14.5°C 43.4°F6.3°C 58% Calm Calm 1.2 mph1.9 kmh 29.91 in1012.9 mb - 0.00 in0.0 mm 0.00 in0.0 mm
06:30 AM 58.0°F14.4°C 43.8°F6.6°C 59% Calm Calm 1.2 mph1.9 kmh 29.92 in1013.2 mb - 0.00 in0.0 mm 0.00 in0.0 mm
06:35 AM 57.9°F14.4°C 43.7°F6.5°C 59% Calm Calm -- 29.92 in1013.2 mb - 0.00 in0.0 mm 0.00 in0.0 mm
06:40 AM 57.8°F14.3°C 43.6°F6.4°C 59% Calm Calm -- 29.92 in1013.2 mb - 0.00 in0.0 mm 0.00 in0.0 mm
06:45 AM 57.8°F14.3°C 43.6°F6.4°C 59% Calm Calm -- 29.92 in1013.2 mb - 0.00 in0.0 mm 0.00 in0.0 mm
06:50 AM 57.8°F14.3°C 43.6°F6.4°C 59% 1.2 mph N1.9 kmh N 2.3 mph3.7 kmh 29.92 in1013.2 mb - 0.00 in0.0 mm 0.00 in0.0 mm
06:55 AM 58.1°F14.5°C 43.4°F6.3°C 58% 1.2 mph NNE1.9 kmh NNE 2.3 mph3.7 kmh 29.92 in1013.2 mb - 0.00 in0.0 mm 0.00 in0.0 mm
07:00 AM 58.2°F14.6°C 43.5°F6.4°C 58% Calm Calm -- 29.92 in1013.2 mb - 0.00 in0.0 mm 0.00 in0.0 mm
07:10 AM 57.7°F14.3°C 43.9°F6.6°C 60% Calm Calm -- 29.93 in1013.5 mb - 0.00 in0.0 mm 0.00 in0.0 mm
07:15 AM 57.7°F14.3°C 44.3°F6.8°C 61% Calm Calm -- 29.93 in1013.5 mb - 0.00 in0.0 mm 0.00 in0.0 mm
07:20 AM 57.7°F14.3°C 43.9°F6.6°C 60% Calm Calm -- 29.93 in1013.5 mb - 0.00 in0.0 mm 0.00 in0.0 mm
07:25 AM 57.8°F14.3°C 44.4°F6.9°C 61% Calm Calm -- 29.93 in1013.5 mb - 0.00 in0.0 mm 0.00 in0.0 mm
07:30 AM 58.1°F14.5°C 44.3°F6.8°C 60% Calm Calm -- 29.93 in1013.5 mb - 0.00 in0.0 mm 0.00 in0.0 mm
07:35 AM 58.5°F14.7°C 44.6°F7.0°C 60% Calm Calm -- 29.93 in1013.5 mb - 0.00 in0.0 mm 0.00 in0.0 mm
07:40 AM 58.7°F14.8°C 45.3°F7.4°C 61% Calm Calm -- 29.94 in1013.9 mb - 0.00 in0.0 mm 0.00 in0.0 mm
07:45 AM 59.1°F15.1°C 45.3°F7.4°C 60% Calm Calm -- 29.94 in1013.9 mb - 0.00 in0.0 mm 0.00 in0.0 mm
07:50 AM 59.5°F15.3°C 45.2°F7.3°C 59% Calm Calm -- 29.94 in1013.9 mb - 0.00 in0.0 mm 0.00 in0.0 mm
07:55 AM 59.7°F15.4°C 46.3°F7.9°C 61% Calm Calm 1.2 mph1.9 kmh 29.94 in1013.9 mb - 0.00 in0.0 mm 0.00 in0.0 mm
08:00 AM 60.4°F15.8°C 45.6°F7.6°C 58% 1.2 mph NNE1.9 kmh NNE 1.2 mph1.9 kmh 29.95 in1014.2 mb - 0.00 in0.0 mm 0.00 in0.0 mm
08:10 AM 62.4°F16.9°C 45.0°F7.2°C 53% Calm Calm 1.2 mph1.9 kmh 29.95 in1014.2 mb - 0.00 in0.0 mm 0.00 in0.0 mm
08:15 AM 62.5°F16.9°C 45.2°F7.3°C 53% Calm Calm -- 29.95 in1014.2 mb - 0.00 in0.0 mm 0.00 in0.0 mm
08:20 AM 63.2°F17.3°C 45.8°F7.7°C 53% Calm Calm 1.2 mph1.9 kmh 29.95 in1014.2 mb - 0.00 in0.0 mm 0.00 in0.0 mm
08:25 AM 63.6°F17.6°C 46.1°F7.8°C 53% Calm Calm 2.3 mph3.7 kmh 29.95 in1014.2 mb - 0.00 in0.0 mm 0.00 in0.0 mm
08:30 AM 63.9°F17.7°C 46.4°F8.0°C 53% 1.2 mph NNE1.9 kmh NNE 2.3 mph3.7 kmh 29.95 in1014.2 mb - 0.00 in0.0 mm 0.00 in0.0 mm
08:35 AM 65.2°F18.4°C 47.1°F8.4°C 52% Calm Calm -- 29.96 in1014.6 mb - 0.00 in0.0 mm 0.00 in0.0 mm
08:40 AM 65.6°F18.7°C 45.4°F7.4°C 48% Calm Calm 1.2 mph1.9 kmh 29.96 in1014.6 mb - 0.00 in0.0 mm 0.00 in0.0 mm
08:45 AM 65.8°F18.8°C 47.2°F8.4°C 51% Calm Calm 1.2 mph1.9 kmh 29.96 in1014.6 mb - 0.00 in0.0 mm 0.00 in0.0 mm
08:50 AM 66.3°F19.1°C 46.0°F7.8°C 48% Calm Calm 1.2 mph1.9 kmh 29.96 in1014.6 mb - 0.00 in0.0 mm 0.00 in0.0 mm
08:55 AM 67.1°F19.5°C 45.6°F7.6°C 46% Calm Calm -- 29.96 in1014.6 mb - 0.00 in0.0 mm 0.00 in0.0 mm
09:00 AM 67.7°F19.8°C 45.0°F7.2°C 44% Calm Calm 1.2 mph1.9 kmh 29.96 in1014.6 mb - 0.00 in0.0 mm 0.00 in0.0 mm
09:10 AM 69.1°F20.6°C 42.4°F5.8°C 38% 1.2 mph SE1.9 kmh SE 3.5 mph5.6 kmh 29.96 in1014.6 mb - 0.00 in0.0 mm 0.00 in0.0 mm
09:15 AM 69.3°F20.7°C 42.6°F5.9°C 38% Calm Calm 1.2 mph1.9 kmh 29.96 in1014.6 mb - 0.00 in0.0 mm 0.00 in0.0 mm
09:20 AM 69.3°F20.7°C 42.5°F5.8°C 38% 1.2 mph SSE1.9 kmh SSE 3.5 mph5.6 kmh 29.96 in1014.6 mb - 0.00 in0.0 mm 0.00 in0.0 mm
09:25 AM 69.5°F20.8°C 41.4°F5.2°C 36% 2.3 mph SE3.7 kmh SE 3.5 mph5.6 kmh 29.96 in1014.6 mb - 0.00 in0.0 mm 0.00 in0.0 mm
09:30 AM 70.4°F21.3°C 42.1°F5.6°C 36% Calm Calm 3.5 mph5.6 kmh 29.96 in1014.6 mb - 0.00 in0.0 mm 0.00 in0.0 mm
09:35 AM 70.9°F21.6°C 41.8°F5.4°C 35% 2.3 mph SE3.7 kmh SE 3.5 mph5.6 kmh 29.96 in1014.6 mb - 0.00 in0.0 mm 0.00 in0.0 mm
09:40 AM 71.1°F21.7°C 42.8°F6.0°C 36% 2.3 mph SE3.7 kmh SE 3.5 mph5.6 kmh 29.96 in1014.6 mb - 0.00 in0.0 mm 0.00 in0.0 mm
09:45 AM 71.6°F22.0°C 43.3°F6.3°C 36% 1.2 mph SSE1.9 kmh SSE 3.5 mph5.6 kmh 29.96 in1014.6 mb - 0.00 in0.0 mm 0.00 in0.0 mm
09:50 AM 72.2°F22.3°C 43.8°F6.6°C 36% 1.2 mph SE1.9 kmh SE 3.5 mph5.6 kmh 29.96 in1014.6 mb - 0.00 in0.0 mm 0.00 in0.0 mm
09:55 AM 72.5°F22.5°C 43.3°F6.3°C 35% 1.2 mph SE1.9 kmh SE 3.5 mph5.6 kmh 29.96 in1014.6 mb - 0.00 in0.0 mm 0.00 in0.0 mm
10:00 AM 72.9°F22.7°C 43.6°F6.4°C 35% 2.3 mph SE3.7 kmh SE 3.5 mph5.6 kmh 29.96 in1014.6 mb - 0.00 in0.0 mm 0.00 in0.0 mm
10:10 AM 73.0°F22.8°C 43.7°F6.5°C 35% 2.3 mph S3.7 kmh S 4.6 mph7.4 kmh 29.96 in1014.6 mb - 0.00 in0.0 mm 0.00 in0.0 mm
10:15 AM 72.7°F22.6°C 44.2°F6.8°C 36% 2.3 mph SE3.7 kmh SE 3.5 mph5.6 kmh 29.96 in1014.6 mb - 0.00 in0.0 mm 0.00 in0.0 mm
10:20 AM 73.1°F22.8°C 43.8°F6.6°C 35% 2.3 mph SE3.7 kmh SE 4.6 mph7.4 kmh 29.95 in1014.2 mb - 0.00 in0.0 mm 0.00 in0.0 mm
10:25 AM 73.6°F23.1°C 44.2°F6.8°C 35% 2.3 mph SSE3.7 kmh SSE 6.9 mph11.1 kmh 29.95 in1014.2 mb - 0.00 in0.0 mm 0.00 in0.0 mm
10:30 AM 73.0°F22.8°C 43.7°F6.5°C 35% 3.5 mph SSE5.6 kmh SSE 6.9 mph11.1 kmh 29.95 in1014.2 mb - 0.00 in0.0 mm 0.00 in0.0 mm
10:35 AM 72.9°F22.7°C 43.7°F6.5°C 35% 2.3 mph SSE3.7 kmh SSE 3.5 mph5.6 kmh 29.95 in1014.2 mb - 0.00 in0.0 mm 0.00 in0.0 mm
10:40 AM 73.4°F23.0°C 44.0°F6.7°C 35% 2.3 mph S3.7 kmh S 4.6 mph7.4 kmh 29.95 in1014.2 mb - 0.00 in0.0 mm 0.00 in0.0 mm
10:45 AM 73.5°F23.1°C 44.1°F6.7°C 35% 2.3 mph SE3.7 kmh SE 3.5 mph5.6 kmh 29.95 in1014.2 mb - 0.00 in0.0 mm 0.00 in0.0 mm
10:50 AM 74.2°F23.4°C 44.0°F6.7°C 34% 1.2 mph ESE1.9 kmh ESE 2.3 mph3.7 kmh 29.95 in1014.2 mb - 0.00 in0.0 mm 0.00 in0.0 mm
10:55 AM 74.6°F23.7°C 45.1°F7.3°C 35% Calm Calm 5.8 mph9.3 kmh 29.95 in1014.2 mb - 0.00 in0.0 mm 0.00 in0.0 mm
11:00 AM 74.4°F23.6°C 44.2°F6.8°C 34% 2.3 mph S3.7 kmh S 5.8 mph9.3 kmh 29.95 in1014.2 mb - 0.00 in0.0 mm 0.00 in0.0 mm
11:10 AM 74.4°F23.6°C 45.0°F7.2°C 35% 2.3 mph S3.7 kmh S 3.5 mph5.6 kmh 29.95 in1014.2 mb - 0.00 in0.0 mm 0.00 in0.0 mm
11:15 AM 74.6°F23.7°C 45.2°F7.3°C 35% 2.3 mph S3.7 kmh S 3.5 mph5.6 kmh 29.95 in1014.2 mb - 0.00 in0.0 mm 0.00 in0.0 mm
11:20 AM 75.0°F23.9°C 45.5°F7.5°C 35% 3.5 mph S5.6 kmh S 4.6 mph7.4 kmh 29.95 in1014.2 mb - 0.00 in0.0 mm 0.00 in0.0 mm
11:25 AM 75.3°F24.1°C 45.7°F7.6°C 35% 2.3 mph SSE3.7 kmh SSE 5.8 mph9.3 kmh 29.95 in1014.2 mb - 0.00 in0.0 mm 0.00 in0.0 mm
11:30 AM 75.4°F24.1°C 45.1°F7.3°C 34% 2.3 mph SSE3.7 kmh SSE 4.6 mph7.4 kmh 29.95 in1014.2 mb - 0.00 in0.0 mm 0.00 in0.0 mm
11:35 AM 75.5°F24.2°C 45.1°F7.3°C 34% 2.3 mph SSE3.7 kmh SSE 4.6 mph7.4 kmh 29.95 in1014.2 mb - 0.00 in0.0 mm 0.00 in0.0 mm
11:40 AM 75.7°F24.3°C 45.3°F7.4°C 34% 2.3 mph S3.7 kmh S 5.8 mph9.3 kmh 29.95 in1014.2 mb - 0.00 in0.0 mm 0.00 in0.0 mm
11:45 AM 75.7°F24.3°C 45.3°F7.4°C 34% 3.5 mph S5.6 kmh S 8.1 mph13.0 kmh 29.95 in1014.2 mb - 0.00 in0.0 mm 0.00 in0.0 mm
11:50 AM 75.7°F24.3°C 45.3°F7.4°C 34% 2.3 mph SSE3.7 kmh SSE 3.5 mph5.6 kmh 29.94 in1013.9 mb - 0.00 in0.0 mm 0.00 in0.0 mm
11:55 AM 75.9°F24.4°C 46.3°F7.9°C 35% 4.6 mph SSW7.4 kmh SSW 6.9 mph11.1 kmh 29.94 in1013.9 mb - 0.00 in0.0 mm 0.00 in0.0 mm
12:00 PM 75.6°F24.2°C 46.0°F7.8°C 35% 3.5 mph SSW5.6 kmh SSW 3.5 mph5.6 kmh 29.94 in1013.9 mb - 0.00 in0.0 mm 0.00 in0.0 mm
12:10 PM 76.2°F24.6°C 46.6°F8.1°C 35% 3.5 mph SSE5.6 kmh SSE 6.9 mph11.1 kmh 29.93 in1013.5 mb - 0.00 in0.0 mm 0.00 in0.0 mm
12:15 PM 76.7°F24.8°C 46.2°F7.9°C 34% 3.5 mph SE5.6 kmh SE 8.1 mph13.0 kmh 29.93 in1013.5 mb - 0.00 in0.0 mm 0.00 in0.0 mm
12:20 PM 76.5°F24.7°C 46.0°F7.8°C 34% 3.5 mph SSE5.6 kmh SSE 8.1 mph13.0 kmh 29.93 in1013.5 mb - 0.00 in0.0 mm 0.00 in0.0 mm
12:25 PM 76.8°F24.9°C 47.0°F8.3°C 35% 3.5 mph SSE5.6 kmh SSE 5.8 mph9.3 kmh 29.93 in1013.5 mb - 0.00 in0.0 mm 0.00 in0.0 mm
12:30 PM 77.8°F25.4°C 47.1°F8.4°C 34% 2.3 mph SSW3.7 kmh SSW 6.9 mph11.1 kmh 29.93 in1013.5 mb - 0.00 in0.0 mm 0.00 in0.0 mm
12:35 PM 77.3°F25.2°C 46.0°F7.8°C 33% 3.5 mph S5.6 kmh S 9.2 mph14.8 kmh 29.93 in1013.5 mb - 0.00 in0.0 mm 0.00 in0.0 mm
12:40 PM 77.0°F25.0°C 46.4°F8.0°C 34% 4.6 mph SE7.4 kmh SE 8.1 mph13.0 kmh 29.92 in1013.2 mb - 0.00 in0.0 mm 0.00 in0.0 mm
12:45 PM 76.8°F24.9°C 45.5°F7.5°C 33% 3.5 mph SSE5.6 kmh SSE 4.6 mph7.4 kmh 29.92 in1013.2 mb - 0.00 in0.0 mm 0.00 in0.0 mm
12:50 PM 76.9°F24.9°C 45.6°F7.6°C 33% 3.5 mph SSE5.6 kmh SSE 4.6 mph7.4 kmh 29.92 in1013.2 mb - 0.00 in0.0 mm 0.00 in0.0 mm
12:55 PM 77.1°F25.1°C 45.8°F7.7°C 33% 2.3 mph S3.7 kmh S 6.9 mph11.1 kmh 29.92 in1013.2 mb - 0.00 in0.0 mm 0.00 in0.0 mm
01:00 PM 77.1°F25.1°C 45.0°F7.2°C 32% 3.5 mph SSW5.6 kmh SSW 4.6 mph7.4 kmh 29.92 in1013.2 mb - 0.00 in0.0 mm 0.00 in0.0 mm
01:10 PM 77.4°F25.2°C 43.5°F6.4°C 30% 4.6 mph SE7.4 kmh SE 6.9 mph11.1 kmh 29.92 in1013.2 mb - 0.00 in0.0 mm 0.00 in0.0 mm
01:15 PM 77.4°F25.2°C 44.3°F6.8°C 31% 3.5 mph SSE5.6 kmh SSE 4.6 mph7.4 kmh 29.91 in1012.9 mb - 0.00 in0.0 mm 0.00 in0.0 mm
01:20 PM 77.6°F25.3°C 42.8°F6.0°C 29% 2.3 mph SSE3.7 kmh SSE 3.5 mph5.6 kmh 29.91 in1012.9 mb - 0.00 in0.0 mm 0.00 in0.0 mm
01:25 PM 77.7°F25.4°C 44.6°F7.0°C 31% 1.2 mph S1.9 kmh S 4.6 mph7.4 kmh 29.91 in1012.9 mb - 0.00 in0.0 mm 0.00 in0.0 mm
01:30 PM 77.7°F25.4°C 45.5°F7.5°C 32% 2.3 mph SE3.7 kmh SE 3.5 mph5.6 kmh 29.91 in1012.9 mb - 0.00 in0.0 mm 0.00 in0.0 mm
01:35 PM 78.4°F25.8°C 44.4°F6.9°C 30% 3.5 mph SE5.6 kmh SE 5.8 mph9.3 kmh 29.90 in1012.5 mb - 0.00 in0.0 mm 0.00 in0.0 mm
01:40 PM 78.4°F25.8°C 43.5°F6.4°C 29% 3.5 mph ESE5.6 kmh ESE 4.6 mph7.4 kmh 29.90 in1012.5 mb - 0.00 in0.0 mm 0.00 in0.0 mm
01:45 PM 78.4°F25.8°C 44.4°F6.9°C 30% 2.3 mph SSW3.7 kmh SSW 5.8 mph9.3 kmh 29.90 in1012.5 mb - 0.00 in0.0 mm 0.00 in0.0 mm
01:50 PM 78.0°F25.6°C 44.0°F6.7°C 30% 2.3 mph S3.7 kmh S 3.5 mph5.6 kmh 29.90 in1012.5 mb - 0.00 in0.0 mm 0.00 in0.0 mm
01:55 PM 78.4°F25.8°C 41.7°F5.4°C 27% 3.5 mph SW5.6 kmh SW 9.2 mph14.8 kmh 29.89 in1012.2 mb - 0.00 in0.0 mm 0.00 in0.0 mm
02:00 PM 78.1°F25.6°C 40.4°F4.7°C 26% 2.3 mph S3.7 kmh S 4.6 mph7.4 kmh 29.89 in1012.2 mb - 0.00 in0.0 mm 0.00 in0.0 mm
02:10 PM 78.4°F25.8°C 42.6°F5.9°C 28% 2.3 mph S3.7 kmh S 3.5 mph5.6 kmh 29.89 in1012.2 mb - 0.00 in0.0 mm 0.00 in0.0 mm
02:15 PM 78.3°F25.7°C 41.6°F5.3°C 27% 2.3 mph SE3.7 kmh SE 3.5 mph5.6 kmh 29.89 in1012.2 mb - 0.00 in0.0 mm 0.00 in0.0 mm
02:20 PM 78.6°F25.9°C 42.7°F5.9°C 28% 1.2 mph E1.9 kmh E 4.6 mph7.4 kmh 29.89 in1012.2 mb - 0.00 in0.0 mm 0.00 in0.0 mm
02:25 PM 78.5°F25.8°C 42.7°F5.9°C 28% 2.3 mph SSW3.7 kmh SSW 3.5 mph5.6 kmh 29.89 in1012.2 mb - 0.00 in0.0 mm 0.00 in0.0 mm
02:30 PM 78.5°F25.8°C 43.6°F6.4°C 29% 2.3 mph SW3.7 kmh SW 5.8 mph9.3 kmh 29.89 in1012.2 mb - 0.00 in0.0 mm 0.00 in0.0 mm
02:35 PM 78.9°F26.1°C 41.1°F5.1°C 26% 3.5 mph SSW5.6 kmh SSW 3.5 mph5.6 kmh 29.89 in1012.2 mb - 0.00 in0.0 mm 0.00 in0.0 mm
02:40 PM 78.8°F26.0°C 41.0°F5.0°C 26% 3.5 mph SSW5.6 kmh SSW 5.8 mph9.3 kmh 29.89 in1012.2 mb - 0.00 in0.0 mm 0.00 in0.0 mm
02:45 PM 78.6°F25.9°C 41.8°F5.4°C 27% 2.3 mph SSW3.7 kmh SSW 4.6 mph7.4 kmh 29.89 in1012.2 mb - 0.00 in0.0 mm 0.00 in0.0 mm
02:50 PM 78.8°F26.0°C 43.0°F6.1°C 28% 2.3 mph SSW3.7 kmh SSW 3.5 mph5.6 kmh 29.88 in1011.9 mb - 0.00 in0.0 mm 0.00 in0.0 mm
02:55 PM 79.6°F26.4°C 43.6°F6.4°C 28% Calm Calm 2.3 mph3.7 kmh 29.88 in1011.9 mb - 0.00 in0.0 mm 0.00 in0.0 mm
03:00 PM 80.0°F26.7°C 43.0°F6.1°C 27% 1.2 mph NNE1.9 kmh NNE 2.3 mph3.7 kmh 29.88 in1011.9 mb - 0.00 in0.0 mm 0.00 in0.0 mm
03:10 PM 80.2°F26.8°C 43.2°F6.2°C 27% 1.2 mph SE1.9 kmh SE 3.5 mph5.6 kmh 29.88 in1011.9 mb - 0.00 in0.0 mm 0.00 in0.0 mm
03:15 PM 79.7°F26.5°C 41.8°F5.4°C 26% 2.3 mph SSW3.7 kmh SSW 6.9 mph11.1 kmh 29.88 in1011.9 mb - 0.00 in0.0 mm 0.00 in0.0 mm
03:20 PM 79.7°F26.5°C 41.8°F5.4°C 26% 3.5 mph S5.6 kmh S 3.5 mph5.6 kmh 29.88 in1011.9 mb - 0.00 in0.0 mm 0.00 in0.0 mm
03:25 PM 79.5°F26.4°C 42.6°F5.9°C 27% 2.3 mph SSE3.7 kmh SSE 4.6 mph7.4 kmh 29.88 in1011.9 mb - 0.00 in0.0 mm 0.00 in0.0 mm
03:30 PM 79.6°F26.4°C 42.7°F5.9°C 27% 1.2 mph E1.9 kmh E 3.5 mph5.6 kmh 29.87 in1011.5 mb - 0.00 in0.0 mm 0.00 in0.0 mm
03:35 PM 79.2°F26.2°C 43.3°F6.3°C 28% 1.2 mph NE1.9 kmh NE 1.2 mph1.9 kmh 29.87 in1011.5 mb - 0.00 in0.0 mm 0.00 in0.0 mm
03:40 PM 79.7°F26.5°C 42.8°F6.0°C 27% 1.2 mph SE1.9 kmh SE 3.5 mph5.6 kmh 29.87 in1011.5 mb - 0.00 in0.0 mm 0.00 in0.0 mm
03:45 PM 80.6°F27.0°C 42.5°F5.8°C 26% 3.5 mph S5.6 kmh S 6.9 mph11.1 kmh 29.87 in1011.5 mb - 0.00 in0.0 mm 0.00 in0.0 mm
03:50 PM 79.9°F26.6°C 40.9°F4.9°C 25% 1.2 mph SE1.9 kmh SE 1.2 mph1.9 kmh 29.87 in1011.5 mb - 0.00 in0.0 mm 0.00 in0.0 mm
03:55 PM 79.6°F26.4°C 41.7°F5.4°C 26% 2.3 mph S3.7 kmh S 6.9 mph11.1 kmh 29.87 in1011.5 mb - 0.00 in0.0 mm 0.00 in0.0 mm
04:00 PM 79.2°F26.2°C 41.3°F5.2°C 26% 3.5 mph S5.6 kmh S 5.8 mph9.3 kmh 29.87 in1011.5 mb - 0.00 in0.0 mm 0.00 in0.0 mm
04:10 PM 78.0°F25.6°C 41.3°F5.2°C 27% 3.5 mph SSW5.6 kmh SSW 4.6 mph7.4 kmh 29.87 in1011.5 mb - 0.00 in0.0 mm 0.00 in0.0 mm
04:15 PM 78.3°F25.7°C 41.6°F5.3°C 27% 2.3 mph SSE3.7 kmh SSE 4.6 mph7.4 kmh 29.86 in1011.2 mb - 0.00 in0.0 mm 0.00 in0.0 mm
04:20 PM 78.2°F25.7°C 41.4°F5.2°C 27% 1.2 mph S1.9 kmh S 3.5 mph5.6 kmh 29.86 in1011.2 mb - 0.00 in0.0 mm 0.00 in0.0 mm
04:25 PM 77.8°F25.4°C 42.1°F5.6°C 28% 1.2 mph S1.9 kmh S 2.3 mph3.7 kmh 29.86 in1011.2 mb - 0.00 in0.0 mm 0.00 in0.0 mm
04:30 PM 77.8°F25.4°C 41.1°F5.1°C 27% 2.3 mph SE3.7 kmh SE 3.5 mph5.6 kmh 29.86 in1011.2 mb - 0.00 in0.0 mm 0.00 in0.0 mm
04:35 PM 77.7°F25.4°C 42.0°F5.6°C 28% 1.2 mph SSW1.9 kmh SSW 1.2 mph1.9 kmh 29.86 in1011.2 mb - 0.00 in0.0 mm 0.00 in0.0 mm
04:40 PM 77.7°F25.4°C 42.0°F5.6°C 28% 1.2 mph SW1.9 kmh SW 3.5 mph5.6 kmh 29.86 in1011.2 mb - 0.00 in0.0 mm 0.00 in0.0 mm
04:45 PM 77.6°F25.3°C 41.9°F5.5°C 28% 2.3 mph SE3.7 kmh SE 3.5 mph5.6 kmh 29.86 in1011.2 mb - 0.00 in0.0 mm 0.00 in0.0 mm
04:50 PM 77.9°F25.5°C 42.1°F5.6°C 28% 2.3 mph SE3.7 kmh SE 2.3 mph3.7 kmh 29.85 in1010.8 mb - 0.00 in0.0 mm 0.00 in0.0 mm
04:55 PM 77.8°F25.4°C 42.1°F5.6°C 28% 1.2 mph SE1.9 kmh SE 2.3 mph3.7 kmh 29.85 in1010.8 mb - 0.00 in0.0 mm 0.00 in0.0 mm
05:00 PM 77.8°F25.4°C 43.0°F6.1°C 29% 1.2 mph SSE1.9 kmh SSE 5.8 mph9.3 kmh 29.85 in1010.8 mb - 0.00 in0.0 mm 0.00 in0.0 mm
05:10 PM 77.1°F25.1°C 42.4°F5.8°C 29% 3.5 mph SSE5.6 kmh SSE 3.5 mph5.6 kmh 29.85 in1010.8 mb - 0.00 in0.0 mm 0.00 in0.0 mm
05:15 PM 77.0°F25.0°C 42.3°F5.7°C 29% 2.3 mph SE3.7 kmh SE 3.5 mph5.6 kmh 29.85 in1010.8 mb - 0.00 in0.0 mm 0.00 in0.0 mm
05:20 PM 76.9°F24.9°C 42.2°F5.7°C 29% 1.2 mph SE1.9 kmh SE 3.5 mph5.6 kmh 29.85 in1010.8 mb - 0.00 in0.0 mm 0.00 in0.0 mm
05:25 PM 76.6°F24.8°C 41.9°F5.5°C 29% 2.3 mph SE3.7 kmh SE 3.5 mph5.6 kmh 29.85 in1010.8 mb - 0.00 in0.0 mm 0.00 in0.0 mm
05:30 PM 76.3°F24.6°C 41.7°F5.4°C 29% 1.2 mph SE1.9 kmh SE 2.3 mph3.7 kmh 29.85 in1010.8 mb - 0.00 in0.0 mm 0.00 in0.0 mm
05:35 PM 76.2°F24.6°C 42.5°F5.8°C 30% 2.3 mph SE3.7 kmh SE 4.6 mph7.4 kmh 29.85 in1010.8 mb - 0.00 in0.0 mm 0.00 in0.0 mm
05:40 PM 76.0°F24.4°C 43.1°F6.2°C 31% 2.3 mph SSE3.7 kmh SSE 2.3 mph3.7 kmh 29.85 in1010.8 mb - 0.00 in0.0 mm 0.00 in0.0 mm
05:45 PM 75.8°F24.3°C 43.0°F6.1°C 31% 1.2 mph SSW1.9 kmh SSW 1.2 mph1.9 kmh 29.85 in1010.8 mb - 0.00 in0.0 mm 0.00 in0.0 mm
05:50 PM 75.5°F24.2°C 42.8°F6.0°C 31% 1.2 mph SE1.9 kmh SE 3.5 mph5.6 kmh 29.85 in1010.8 mb - 0.00 in0.0 mm 0.00 in0.0 mm
05:55 PM 75.3°F24.1°C 42.5°F5.8°C 31% 1.2 mph SSE1.9 kmh SSE 3.5 mph5.6 kmh 29.85 in1010.8 mb - 0.00 in0.0 mm 0.00 in0.0 mm
06:00 PM 75.0°F23.9°C 42.3°F5.7°C 31% 1.2 mph SE1.9 kmh SE 1.2 mph1.9 kmh 29.85 in1010.8 mb - 0.00 in0.0 mm 0.00 in0.0 mm
06:10 PM 74.3°F23.5°C 43.3°F6.3°C 33% Calm Calm -- 29.85 in1010.8 mb - 0.00 in0.0 mm 0.00 in0.0 mm
06:15 PM 73.7°F23.2°C 43.5°F6.4°C 34% Calm Calm -- 29.85 in1010.8 mb - 0.00 in0.0 mm 0.00 in0.0 mm
06:20 PM 73.1°F22.8°C 43.8°F6.6°C 35% Calm Calm 1.2 mph1.9 kmh 29.85 in1010.8 mb - 0.00 in0.0 mm 0.00 in0.0 mm
06:25 PM 72.6°F22.6°C 43.3°F6.3°C 35% Calm Calm -- 29.86 in1011.2 mb - 0.00 in0.0 mm 0.00 in0.0 mm
06:30 PM 72.2°F22.3°C 43.8°F6.6°C 36% Calm Calm -- 29.86 in1011.2 mb - 0.00 in0.0 mm 0.00 in0.0 mm
06:35 PM 71.8°F22.1°C 43.4°F6.3°C 36% Calm Calm -- 29.86 in1011.2 mb - 0.00 in0.0 mm 0.00 in0.0 mm
06:40 PM 71.4°F21.9°C 43.8°F6.6°C 37% Calm Calm -- 29.86 in1011.2 mb - 0.00 in0.0 mm 0.00 in0.0 mm
06:45 PM 71.1°F21.7°C 43.5°F6.4°C 37% Calm Calm 1.2 mph1.9 kmh 29.86 in1011.2 mb - 0.00 in0.0 mm 0.00 in0.0 mm
06:50 PM 70.9°F21.6°C 43.3°F6.3°C 37% Calm Calm -- 29.86 in1011.2 mb - 0.00 in0.0 mm 0.00 in0.0 mm
06:55 PM 70.9°F21.6°C 44.0°F6.7°C 38% Calm Calm 1.2 mph1.9 kmh 29.86 in1011.2 mb - 0.00 in0.0 mm 0.00 in0.0 mm
07:00 PM 70.8°F21.6°C 43.9°F6.6°C 38% Calm Calm -- 29.86 in1011.2 mb - 0.00 in0.0 mm 0.00 in0.0 mm
07:10 PM 70.6°F21.4°C 43.7°F6.5°C 38% Calm Calm 1.2 mph1.9 kmh 29.86 in1011.2 mb - 0.00 in0.0 mm 0.00 in0.0 mm
07:15 PM 70.6°F21.4°C 43.7°F6.5°C 38% Calm Calm 1.2 mph1.9 kmh 29.86 in1011.2 mb - 0.00 in0.0 mm 0.00 in0.0 mm
07:20 PM 70.6°F21.4°C 43.0°F6.1°C 37% Calm Calm -- 29.86 in1011.2 mb - 0.00 in0.0 mm 0.00 in0.0 mm
07:25 PM 70.6°F21.4°C 43.1°F6.2°C 37% Calm Calm -- 29.86 in1011.2 mb - 0.00 in0.0 mm 0.00 in0.0 mm
07:30 PM 70.7°F21.5°C 43.1°F6.2°C 37% Calm Calm -- 29.87 in1011.5 mb - 0.00 in0.0 mm 0.00 in0.0 mm
07:35 PM 70.3°F21.3°C 46.1°F7.8°C 42% Calm Calm -- 29.87 in1011.5 mb - 0.00 in0.0 mm 0.00 in0.0 mm
07:40 PM 69.7°F20.9°C 46.2°F7.9°C 43% Calm Calm -- 29.87 in1011.5 mb - 0.00 in0.0 mm 0.00 in0.0 mm
07:45 PM 69.4°F20.8°C 46.5°F8.1°C 44% Calm Calm 1.2 mph1.9 kmh 29.87 in1011.5 mb - 0.00 in0.0 mm 0.00 in0.0 mm
07:50 PM 69.2°F20.7°C 45.1°F7.3°C 42% Calm Calm 1.2 mph1.9 kmh 29.87 in1011.5 mb - 0.00 in0.0 mm 0.00 in0.0 mm
08:00 PM 69.3°F20.7°C 44.5°F6.9°C 41% Calm Calm 1.2 mph1.9 kmh 29.87 in1011.5 mb - 0.00 in0.0 mm 0.00 in0.0 mm
08:10 PM 69.5°F20.8°C 44.1°F6.7°C 40% Calm Calm 1.2 mph1.9 kmh 29.88 in1011.9 mb - 0.00 in0.0 mm 0.00 in0.0 mm
08:15 PM 69.6°F20.9°C 43.6°F6.4°C 39% Calm Calm 1.2 mph1.9 kmh 29.88 in1011.9 mb - 0.00 in0.0 mm 0.00 in0.0 mm
08:20 PM 69.6°F20.9°C 43.5°F6.4°C 39% Calm Calm -- 29.88 in1011.9 mb - 0.00 in0.0 mm 0.00 in0.0 mm
08:25 PM 69.5°F20.8°C 43.5°F6.4°C 39% Calm Calm -- 29.88 in1011.9 mb - 0.00 in0.0 mm 0.00 in0.0 mm
08:30 PM 69.3°F20.7°C 43.3°F6.3°C 39% Calm Calm -- 29.88 in1011.9 mb - 0.00 in0.0 mm 0.00 in0.0 mm
08:40 PM 69.0°F20.6°C 43.7°F6.5°C 40% Calm Calm -- 29.88 in1011.9 mb - 0.00 in0.0 mm 0.00 in0.0 mm
08:45 PM 68.9°F20.5°C 43.6°F6.4°C 40% Calm Calm 1.2 mph1.9 kmh 29.88 in1011.9 mb - 0.00 in0.0 mm 0.00 in0.0 mm
08:50 PM 68.9°F20.5°C 43.6°F6.4°C 40% Calm Calm -- 29.87 in1011.5 mb - 0.00 in0.0 mm 0.00 in0.0 mm
09:00 PM 68.6°F20.3°C 45.2°F7.3°C 43% Calm Calm -- 29.87 in1011.5 mb - 0.00 in0.0 mm 0.00 in0.0 mm
09:10 PM 67.5°F19.7°C 45.4°F7.4°C 45% Calm Calm -- 29.87 in1011.5 mb - 0.00 in0.0 mm 0.00 in0.0 mm
09:20 PM 67.0°F19.4°C 44.9°F7.2°C 45% Calm Calm -- 29.87 in1011.5 mb - 0.00 in0.0 mm 0.00 in0.0 mm
09:30 PM 67.0°F19.4°C 45.5°F7.5°C 46% Calm Calm -- 29.87 in1011.5 mb - 0.00 in0.0 mm 0.00 in0.0 mm
09:35 PM 66.9°F19.4°C 46.0°F7.8°C 47% Calm Calm -- 29.87 in1011.5 mb - 0.00 in0.0 mm 0.00 in0.0 mm
09:40 PM 66.3°F19.1°C 46.6°F8.1°C 49% Calm Calm -- 29.87 in1011.5 mb - 0.00 in0.0 mm 0.00 in0.0 mm
09:45 PM 66.1°F18.9°C 46.3°F7.9°C 49% Calm Calm 1.2 mph1.9 kmh 29.87 in1011.5 mb - 0.00 in0.0 mm 0.00 in0.0 mm
09:50 PM 66.3°F19.1°C 46.0°F7.8°C 48% Calm Calm 1.2 mph1.9 kmh 29.87 in1011.5 mb - 0.00 in0.0 mm 0.00 in0.0 mm
09:55 PM 66.4°F19.1°C 45.5°F7.5°C 47% Calm Calm -- 29.87 in1011.5 mb - 0.00 in0.0 mm 0.00 in0.0 mm
10:00 PM 66.5°F19.2°C 45.6°F7.6°C 47% Calm Calm -- 29.87 in1011.5 mb - 0.00 in0.0 mm 0.00 in0.0 mm
10:10 PM 66.5°F19.2°C 46.2°F7.9°C 48% 2.3 mph N3.7 kmh N 2.3 mph3.7 kmh 29.88 in1011.9 mb - 0.00 in0.0 mm 0.00 in0.0 mm
10:15 PM 66.5°F19.2°C 46.2°F7.9°C 48% 2.3 mph N3.7 kmh N 3.5 mph5.6 kmh 29.88 in1011.9 mb - 0.00 in0.0 mm 0.00 in0.0 mm
10:20 PM 66.4°F19.1°C 46.1°F7.8°C 48% 2.3 mph NNE3.7 kmh NNE 3.5 mph5.6 kmh 29.88 in1011.9 mb - 0.00 in0.0 mm 0.00 in0.0 mm
10:25 PM 66.3°F19.1°C 46.6°F8.1°C 49% 2.3 mph NNE3.7 kmh NNE 3.5 mph5.6 kmh 29.87 in1011.5 mb - 0.00 in0.0 mm 0.00 in0.0 mm
10:30 PM 65.9°F18.8°C 46.8°F8.2°C 50% 2.3 mph N3.7 kmh N 3.5 mph5.6 kmh 29.88 in1011.9 mb - 0.00 in0.0 mm 0.00 in0.0 mm
10:35 PM 65.6°F18.7°C 47.0°F8.3°C 51% 2.3 mph N3.7 kmh N 3.5 mph5.6 kmh 29.88 in1011.9 mb - 0.00 in0.0 mm 0.00 in0.0 mm
10:40 PM 65.6°F18.7°C 46.4°F8.0°C 50% 2.3 mph NNE3.7 kmh NNE 3.5 mph5.6 kmh 29.88 in1011.9 mb - 0.00 in0.0 mm 0.00 in0.0 mm
10:50 PM 66.0°F18.9°C 46.3°F7.9°C 49% 3.5 mph N5.6 kmh N 4.6 mph7.4 kmh 29.88 in1011.9 mb - 0.00 in0.0 mm 0.00 in0.0 mm
10:55 PM 66.0°F18.9°C 45.7°F7.6°C 48% 3.5 mph NNE5.6 kmh NNE 3.5 mph5.6 kmh 29.88 in1011.9 mb - 0.00 in0.0 mm 0.00 in0.0 mm
11:00 PM 66.0°F18.9°C 45.7°F7.6°C 48% 3.5 mph N5.6 kmh N 4.6 mph7.4 kmh 29.88 in1011.9 mb - 0.00 in0.0 mm 0.00 in0.0 mm
11:15 PM 66.4°F19.1°C 45.5°F7.5°C 47% 2.3 mph N3.7 kmh N 5.8 mph9.3 kmh 29.88 in1011.9 mb - 0.00 in0.0 mm 0.00 in0.0 mm
11:25 PM 66.9°F19.4°C 45.4°F7.4°C 46% 3.5 mph N5.6 kmh N 4.6 mph7.4 kmh 29.87 in1011.5 mb - 0.00 in0.0 mm 0.00 in0.0 mm
11:30 PM 67.0°F19.4°C 45.5°F7.5°C 46% 3.5 mph N5.6 kmh N 4.6 mph7.4 kmh 29.87 in1011.5 mb - 0.00 in0.0 mm 0.00 in0.0 mm
11:35 PM 67.1°F19.5°C 45.6°F7.6°C 46% 3.5 mph N5.6 kmh N 3.5 mph5.6 kmh 29.87 in1011.5 mb - 0.00 in0.0 mm 0.00 in0.0 mm
11:40 PM 67.2°F19.6°C 45.1°F7.3°C 45% 2.3 mph N3.7 kmh N 4.6 mph7.4 kmh 29.87 in1011.5 mb - 0.00 in0.0 mm 0.00 in0.0 mm
11:50 PM 67.2°F19.6°C 45.1°F7.3°C 45% 3.5 mph N5.6 kmh N 3.5 mph5.6 kmh 29.88 in1011.9 mb - 0.00 in0.0 mm 0.00 in0.0 mm
11:55 PM 66.9°F19.4°C 45.4°F7.4°C 46% 2.3 mph NE3.7 kmh NE 3.5 mph5.6 kmh 29.87 in1011.5 mb - 0.00 in0.0 mm 0.00 in0.0 mm